Time;durP1;ratioP1;P1;durP2;ratioP2;P2;SDS_P1;SDS_P2;PMS_P1;PMS_P2;Temp;Humidity;BMP_temperature;BMP_pressure;BME280_temperature;BME280_humidity;BME280_pressure;Samples;Min_cycle;Max_cycle;Signal;HPM_P1;HPM_P2
2022/03/10 00:02:19;;;;;;;349.67;152.48;;;2.30;99.90;;;;;;5075412;28;20526;-59
2022/03/10 00:04:45;;;;;;;417.60;170.13;;;2.30;99.90;;;;;;5075273;28;20116;-59
2022/03/10 00:07:11;;;;;;;716.97;267.88;;;2.30;99.90;;;;;;5075301;28;20028;-59
2022/03/10 00:09:37;;;;;;;729.03;291.63;;;2.20;99.90;;;;;;5075074;28;20041;-59
2022/03/10 00:12:04;;;;;;;612.28;271.60;;;2.20;99.90;;;;;;5075340;28;20028;-59
2022/03/10 00:14:30;;;;;;;524.30;218.20;;;2.30;99.90;;;;;;5075255;28;20031;-59
2022/03/10 00:16:56;;;;;;;434.90;175.23;;;2.30;99.90;;;;;;5074972;28;20061;-59
2022/03/10 00:19:22;;;;;;;491.77;190.10;;;2.40;99.90;;;;;;5074486;28;20056;-59
2022/03/10 00:21:49;;;;;;;374.73;156.38;;;2.40;99.90;;;;;;5075130;28;20040;-59
2022/03/10 00:24:16;;;;;;;430.63;177.80;;;2.40;99.90;;;;;;5075058;28;20123;-59
2022/03/10 00:26:42;;;;;;;469.65;183.00;;;2.30;99.90;;;;;;5075101;28;20032;-59
2022/03/10 00:29:08;;;;;;;474.88;186.23;;;2.20;99.90;;;;;;5074965;28;20287;-59
2022/03/10 00:31:35;;;;;;;729.45;290.85;;;2.30;99.90;;;;;;5074626;28;20031;-59
2022/03/10 00:34:01;;;;;;;573.95;226.98;;;2.20;99.90;;;;;;5074750;28;20626;-59
2022/03/10 00:36:28;;;;;;;536.92;216.30;;;2.30;99.90;;;;;;5074876;28;20545;-58
2022/03/10 00:38:54;;;;;;;415.77;175.80;;;2.30;99.90;;;;;;5074592;28;20029;-58
2022/03/10 00:41:21;;;;;;;500.25;199.38;;;2.30;99.90;;;;;;5075116;28;20060;-59
2022/03/10 00:43:47;;;;;;;796.83;316.83;;;2.30;99.90;;;;;;5074373;28;20016;-59
2022/03/10 00:46:14;;;;;;;754.10;300.90;;;2.30;99.90;;;;;;5074588;28;20557;-59
2022/03/10 00:48:40;;;;;;;881.10;348.38;;;2.40;99.90;;;;;;5074552;28;20119;-59
2022/03/10 00:51:07;;;;;;;1030.55;396.05;;;2.40;99.90;;;;;;5074522;28;20458;-59
2022/03/10 00:53:34;;;;;;;823.72;326.77;;;2.40;99.90;;;;;;5074424;28;20037;-59
2022/03/10 00:56:00;;;;;;;657.03;267.52;;;2.40;99.90;;;;;;5074477;28;20036;-59
2022/03/10 00:58:26;;;;;;;549.65;225.45;;;2.40;99.90;;;;;;5074177;28;20028;-59
2022/03/10 01:00:52;;;;;;;536.95;227.55;;;2.40;99.90;;;;;;5074003;28;20599;-59
2022/03/10 01:03:18;;;;;;;523.72;211.23;;;2.40;99.90;;;;;;5074360;28;20062;-59
2022/03/10 01:05:45;;;;;;;568.83;239.98;;;2.40;99.90;;;;;;5074143;28;20468;-59
2022/03/10 01:08:12;;;;;;;548.63;226.43;;;2.40;99.90;;;;;;5074074;28;20533;-59
2022/03/10 01:10:39;;;;;;;480.45;206.32;;;2.50;99.90;;;;;;5073943;28;20035;-59
2022/03/10 01:13:15;;;;;;;507.25;217.25;;;2.50;99.90;;;;;;5073997;28;20458;-59
2022/03/10 01:15:42;;;;;;;485.23;214.07;;;2.50;99.90;;;;;;5073879;28;20481;-59
2022/03/10 01:18:08;;;;;;;466.90;205.50;;;2.50;99.90;;;;;;5074048;28;20040;-59
2022/03/10 01:20:34;;;;;;;435.27;188.60;;;2.50;99.90;;;;;;5074171;28;20474;-59
2022/03/10 01:23:00;;;;;;;438.88;192.43;;;2.50;99.90;;;;;;5073834;28;20024;-59
2022/03/10 01:25:27;;;;;;;439.48;193.50;;;2.50;99.90;;;;;;5074207;28;20031;-59
2022/03/10 01:27:53;;;;;;;438.23;191.18;;;2.40;99.90;;;;;;5073837;28;20040;-59
2022/03/10 01:30:19;;;;;;;453.15;197.93;;;2.40;99.90;;;;;;5073986;28;20021;-59
2022/03/10 01:32:45;;;;;;;449.63;192.02;;;2.40;99.90;;;;;;5073685;28;20440;-59
2022/03/10 01:35:12;;;;;;;467.90;197.25;;;2.40;99.90;;;;;;5073823;28;20452;-58
2022/03/10 01:37:38;;;;;;;457.73;195.75;;;2.40;99.90;;;;;;5073855;28;20200;-59
2022/03/10 01:40:06;;;;;;;442.25;193.10;;;2.50;99.90;;;;;;5074131;28;20037;-59
2022/03/10 01:42:33;;;;;;;431.20;182.90;;;2.40;99.90;;;;;;5073912;28;20157;-59
2022/03/10 01:45:00;;;;;;;443.63;187.55;;;2.40;99.90;;;;;;5073813;28;20167;-59
2022/03/10 01:47:25;;;;;;;428.10;190.52;;;2.40;99.90;;;;;;5073824;28;20021;-59
2022/03/10 01:49:51;;;;;;;418.30;184.35;;;2.40;99.90;;;;;;5073997;28;20477;-59
2022/03/10 01:52:19;;;;;;;430.10;187.02;;;2.40;99.90;;;;;;5073839;28;20073;-59
2022/03/10 01:54:45;;;;;;;445.02;195.88;;;2.50;99.90;;;;;;5073369;28;20248;-59
2022/03/10 01:57:12;;;;;;;458.20;201.85;;;2.50;99.90;;;;;;5073657;28;20543;-59
2022/03/10 01:59:39;;;;;;;431.15;188.48;;;2.40;99.90;;;;;;5073618;28;20028;-59
2022/03/10 02:02:06;;;;;;;436.10;189.05;;;2.40;99.90;;;;;;5073792;28;20386;-59
2022/03/10 02:04:32;;;;;;;424.02;188.88;;;2.40;99.90;;;;;;5073842;28;20351;-59
2022/03/10 02:07:01;;;;;;;436.58;189.00;;;2.40;99.90;;;;;;5073402;28;20041;-59
2022/03/10 02:12:12;;;;;;;440.50;187.05;;;2.40;99.90;;;;;;5073542;28;20028;-59
2022/03/10 02:17:24;;;;;;;414.20;176.65;;;2.40;99.90;;;;;;5073815;28;20036;-59
2022/03/10 02:19:52;;;;;;;404.00;176.23;;;2.30;99.90;;;;;;5073223;28;20032;-59
2022/03/10 02:22:22;;;;;;;424.33;186.63;;;2.30;99.90;;;;;;5073455;28;20071;-59
2022/03/10 02:24:50;;;;;;;399.48;179.73;;;2.20;99.90;;;;;;5073378;28;20024;-59
2022/03/10 02:27:27;;;;;;;456.90;197.73;;;2.30;99.90;;;;;;5073216;28;20120;-59
2022/03/10 02:30:01;;;;;;;489.92;206.45;;;2.30;99.90;;;;;;5073236;28;20103;-59
2022/03/10 02:32:28;;;;;;;496.75;207.18;;;2.40;99.90;;;;;;5073215;28;20494;-59
2022/03/10 02:34:54;;;;;;;500.20;210.63;;;2.40;99.90;;;;;;5073209;28;20450;-59
2022/03/10 02:37:21;;;;;;;515.88;211.65;;;2.40;99.90;;;;;;5073546;28;20040;-59
2022/03/10 02:39:47;;;;;;;530.33;217.65;;;2.40;99.90;;;;;;5073073;28;20428;-59
2022/03/10 02:42:13;;;;;;;509.70;215.57;;;2.40;99.90;;;;;;5075260;28;20025;-59
2022/03/10 02:44:45;;;;;;;506.98;215.93;;;2.40;99.90;;;;;;5076976;28;20031;-59
2022/03/10 02:47:12;;;;;;;506.10;216.40;;;2.40;99.90;;;;;;5076771;28;20036;-59
2022/03/10 02:49:41;;;;;;;506.23;215.52;;;2.40;99.90;;;;;;5076737;28;20077;-59
2022/03/10 02:52:07;;;;;;;453.63;201.82;;;2.30;99.90;;;;;;5076853;28;20025;-59
2022/03/10 02:54:33;;;;;;;435.90;193.52;;;2.30;99.90;;;;;;5076614;28;20048;-59
2022/03/10 02:56:59;;;;;;;442.13;193.80;;;2.30;99.90;;;;;;5076698;28;20048;-59
2022/03/10 02:59:25;;;;;;;434.05;190.32;;;2.40;99.90;;;;;;5076626;28;20029;-59
2022/03/10 03:01:52;;;;;;;420.83;194.10;;;2.40;99.90;;;;;;5076743;28;20098;-59
2022/03/10 03:04:18;;;;;;;428.58;190.25;;;2.30;99.90;;;;;;5076604;28;20029;-59
2022/03/10 03:06:44;;;;;;;450.95;197.63;;;2.30;99.90;;;;;;5076041;28;20509;-59
2022/03/10 03:09:10;;;;;;;457.30;201.82;;;2.30;99.90;;;;;;5076467;28;20079;-59
2022/03/10 03:11:36;;;;;;;480.85;206.02;;;2.40;99.90;;;;;;5076439;28;20054;-59
2022/03/10 03:14:04;;;;;;;531.40;224.93;;;2.50;99.90;;;;;;5076649;28;20032;-59
2022/03/10 03:16:30;;;;;;;487.80;208.30;;;2.50;99.90;;;;;;5076377;28;20119;-59
2022/03/10 03:18:57;;;;;;;455.73;196.68;;;2.50;99.90;;;;;;5076181;28;20051;-59
2022/03/10 03:21:25;;;;;;;415.92;184.05;;;2.50;99.90;;;;;;5076392;28;20031;-59
2022/03/10 03:23:51;;;;;;;391.70;176.63;;;2.50;99.90;;;;;;5076083;28;20020;-59
2022/03/10 03:26:18;;;;;;;380.83;169.90;;;2.40;99.90;;;;;;5076277;28;20119;-59
2022/03/10 03:28:44;;;;;;;351.08;160.55;;;2.30;99.90;;;;;;5075977;28;20032;-59
2022/03/10 03:31:10;;;;;;;357.58;166.15;;;2.30;99.90;;;;;;5075941;28;20363;-59
2022/03/10 03:33:38;;;;;;;361.05;166.52;;;2.20;99.90;;;;;;5076096;28;20032;-59
2022/03/10 03:36:05;;;;;;;360.42;161.48;;;2.20;99.90;;;;;;5076150;28;20493;-59
2022/03/10 03:38:31;;;;;;;348.38;160.55;;;2.30;99.90;;;;;;5075934;28;20029;-59
2022/03/10 03:40:58;;;;;;;335.75;154.45;;;2.30;99.90;;;;;;5075561;28;20064;-59
2022/03/10 03:43:24;;;;;;;346.88;156.35;;;2.20;99.90;;;;;;5075865;28;20036;-59
2022/03/10 03:45:50;;;;;;;367.20;165.07;;;2.20;99.90;;;;;;5075721;28;20056;-59
2022/03/10 03:48:16;;;;;;;389.85;172.65;;;2.20;99.90;;;;;;5075723;28;20071;-59
2022/03/10 03:50:42;;;;;;;373.35;170.10;;;2.20;99.90;;;;;;5075645;28;20025;-59
2022/03/10 03:53:08;;;;;;;426.10;184.27;;;2.20;99.90;;;;;;5074876;28;20478;-59
2022/03/10 03:55:34;;;;;;;416.10;178.75;;;2.20;99.90;;;;;;5075354;28;20052;-59
2022/03/10 03:58:00;;;;;;;404.00;179.82;;;2.20;99.90;;;;;;5075460;28;20395;-59
2022/03/10 04:00:26;;;;;;;383.02;170.35;;;2.20;99.90;;;;;;5075685;28;20036;-59
2022/03/10 04:02:54;;;;;;;366.40;163.07;;;2.20;99.90;;;;;;5075313;28;20047;-59
2022/03/10 04:05:20;;;;;;;355.08;159.05;;;2.20;99.90;;;;;;5075501;28;20040;-59
2022/03/10 04:07:46;;;;;;;323.02;149.45;;;2.30;99.90;;;;;;5075097;28;20039;-59
2022/03/10 04:10:12;;;;;;;323.10;148.18;;;2.20;99.90;;;;;;5074986;28;20086;-59
2022/03/10 04:12:38;;;;;;;326.50;147.45;;;2.30;99.90;;;;;;5075171;28;20028;-59
2022/03/10 04:15:05;;;;;;;337.90;153.02;;;2.20;99.90;;;;;;5075615;28;20040;-59
2022/03/10 04:17:33;;;;;;;339.88;153.23;;;2.30;99.90;;;;;;5075052;28;20025;-59
2022/03/10 04:19:59;;;;;;;349.80;154.02;;;2.30;99.90;;;;;;5074905;28;20090;-59
2022/03/10 04:22:25;;;;;;;459.70;186.93;;;2.30;99.90;;;;;;5075218;28;20032;-59
2022/03/10 04:24:51;;;;;;;560.63;222.77;;;2.30;99.90;;;;;;5074795;28;20028;-59
2022/03/10 04:27:17;;;;;;;552.15;222.57;;;2.40;99.90;;;;;;5074979;28;20127;-59
2022/03/10 04:29:44;;;;;;;528.05;212.88;;;2.40;99.90;;;;;;5074749;28;20036;-59
2022/03/10 04:32:10;;;;;;;482.17;193.77;;;2.40;99.90;;;;;;5074649;28;20138;-59
2022/03/10 04:34:36;;;;;;;450.67;185.30;;;2.40;99.90;;;;;;5074825;28;20048;-59
2022/03/10 04:37:02;;;;;;;398.65;166.02;;;2.40;99.90;;;;;;5075136;28;20052;-59
2022/03/10 04:39:28;;;;;;;344.63;153.05;;;2.40;99.90;;;;;;5074872;28;20442;-59
2022/03/10 04:41:53;;;;;;;323.60;146.10;;;2.40;99.90;;;;;;5074552;28;20111;-59
2022/03/10 04:44:19;;;;;;;293.52;137.00;;;2.30;99.90;;;;;;5074872;28;20115;-59
2022/03/10 04:46:45;;;;;;;302.50;138.02;;;2.40;99.90;;;;;;5074297;28;20078;-59
2022/03/10 04:49:12;;;;;;;290.17;132.10;;;2.40;99.90;;;;;;5074611;28;20029;-59
2022/03/10 04:51:38;;;;;;;274.90;131.23;;;2.40;99.90;;;;;;5074562;28;20029;-59
2022/03/10 04:54:04;;;;;;;283.48;133.70;;;2.40;99.90;;;;;;5074315;28;20500;-59
2022/03/10 04:56:30;;;;;;;281.42;135.85;;;2.40;99.90;;;;;;5074359;28;20045;-59
2022/03/10 04:58:55;;;;;;;287.08;137.82;;;2.20;99.90;;;;;;5074113;28;20032;-58
2022/03/10 05:01:21;;;;;;;299.30;140.57;;;2.20;99.90;;;;;;5074407;28;20024;-59
2022/03/10 05:03:47;;;;;;;324.27;147.93;;;2.10;99.90;;;;;;5074071;28;20036;-59
2022/03/10 05:06:13;;;;;;;296.58;137.80;;;2.20;99.90;;;;;;5074221;28;20033;-59
2022/03/10 05:08:39;;;;;;;289.63;135.02;;;2.20;99.90;;;;;;5073771;28;20123;-58
2022/03/10 05:11:05;;;;;;;289.83;132.77;;;2.20;99.90;;;;;;5074151;28;20025;-59
2022/03/10 05:13:31;;;;;;;290.75;135.57;;;2.30;99.90;;;;;;5074351;28;20024;-59
2022/03/10 05:15:57;;;;;;;272.23;129.48;;;2.30;99.90;;;;;;5074260;28;20024;-59
2022/03/10 05:18:23;;;;;;;276.40;132.02;;;2.30;99.90;;;;;;5074096;28;20386;-59
2022/03/10 05:20:49;;;;;;;281.10;133.50;;;2.30;99.90;;;;;;5073990;28;20055;-59
2022/03/10 05:23:15;;;;;;;290.55;136.80;;;2.30;99.90;;;;;;5073988;28;20306;-59
2022/03/10 05:25:42;;;;;;;286.35;132.75;;;2.30;99.90;;;;;;5073849;28;20067;-59
2022/03/10 05:28:15;;;;;;;283.65;133.05;;;2.40;99.90;;;;;;5074097;28;20032;-59
2022/03/10 05:30:44;;;;;;;293.55;134.70;;;2.30;99.90;;;;;;5073692;28;20021;-59
2022/03/10 05:33:10;;;;;;;262.65;122.25;;;2.30;99.90;;;;;;5074056;28;20028;-59
2022/03/10 05:35:36;;;;;;;256.30;124.47;;;2.30;99.90;;;;;;5073742;28;20562;-59
2022/03/10 05:38:03;;;;;;;214.30;103.28;;;2.40;99.90;;;;;;5074030;28;20047;-59
2022/03/10 05:40:29;;;;;;;272.67;129.10;;;2.40;99.90;;;;;;5073952;28;20016;-58
2022/03/10 05:42:55;;;;;;;170.88;83.70;;;2.40;99.90;;;;;;5073698;28;20119;-59
2022/03/10 05:45:23;;;;;;;105.43;52.15;;;2.50;99.90;;;;;;5073781;28;20056;-59
2022/03/10 05:47:51;;;;;;;69.25;36.08;;;2.60;99.90;;;;;;5073726;28;20067;-59
2022/03/10 05:50:19;;;;;;;69.13;34.10;;;2.80;99.90;;;;;;5073803;28;20032;-59
2022/03/10 05:52:45;;;;;;;55.45;28.73;;;2.90;99.90;;;;;;5073547;28;20061;-59
2022/03/10 05:55:13;;;;;;;40.97;23.40;;;3.00;99.90;;;;;;5073662;28;20024;-59
2022/03/10 05:57:39;;;;;;;46.17;25.35;;;3.10;99.90;;;;;;5073561;28;20386;-59
2022/03/10 06:00:06;;;;;;;60.45;31.38;;;3.10;99.90;;;;;;5073854;28;20029;-59
2022/03/10 06:02:38;;;;;;;43.42;25.20;;;3.20;99.90;;;;;;5073414;28;20033;-59
2022/03/10 06:05:05;;;;;;;42.22;25.30;;;3.30;99.90;;;;;;5073983;28;20403;-59
2022/03/10 06:07:32;;;;;;;45.20;25.80;;;3.40;99.90;;;;;;5073786;28;20032;-59
2022/03/10 06:09:58;;;;;;;47.47;26.48;;;3.40;99.90;;;;;;5073225;28;20040;-58
2022/03/10 06:12:27;;;;;;;50.08;27.85;;;3.40;99.90;;;;;;5073572;28;20382;-59
2022/03/10 06:14:57;;;;;;;57.85;30.63;;;3.50;99.90;;;;;;5073562;28;20612;-59
2022/03/10 06:17:24;;;;;;;77.07;36.47;;;3.50;99.90;;;;;;5075757;28;20041;-59
2022/03/10 06:19:50;;;;;;;78.30;38.15;;;3.50;99.90;;;;;;5077161;28;20036;-58
2022/03/10 06:22:24;;;;;;;95.20;41.30;;;3.40;99.90;;;;;;5077462;28;20436;-59
2022/03/10 06:24:51;;;;;;;106.57;42.80;;;3.50;99.90;;;;;;5077225;28;20028;-59
2022/03/10 06:27:18;;;;;;;167.57;60.30;;;3.40;99.90;;;;;;5077030;28;20048;-59
2022/03/10 06:29:44;;;;;;;123.32;46.45;;;3.40;99.90;;;;;;5076849;28;20036;-59
2022/03/10 06:32:14;;;;;;;89.38;37.78;;;3.50;99.90;;;;;;5076599;28;20035;-59
2022/03/10 06:34:40;;;;;;;83.20;35.47;;;3.40;99.90;;;;;;5077583;28;20028;-59
2022/03/10 06:37:07;;;;;;;62.53;29.20;;;3.50;99.90;;;;;;5076265;28;20382;-59
2022/03/10 06:39:33;;;;;;;46.60;25.00;;;3.50;99.90;;;;;;5077650;28;20474;-57
2022/03/10 06:41:59;;;;;;;41.38;22.42;;;3.50;99.90;;;;;;5076843;28;20032;-58
2022/03/10 06:44:28;;;;;;;43.15;23.45;;;3.50;99.90;;;;;;5077101;28;20158;-58
2022/03/10 06:46:55;;;;;;;63.25;31.33;;;3.50;99.90;;;;;;5075872;28;20047;-58
2022/03/10 06:49:21;;;;;;;69.72;34.90;;;3.50;99.90;;;;;;5077639;28;20033;-56
2022/03/10 06:51:48;;;;;;;53.55;27.27;;;3.50;99.90;;;;;;5076779;28;20045;-55
2022/03/10 06:54:15;;;;;;;56.75;29.70;;;3.50;99.90;;;;;;5077063;28;20031;-55
2022/03/10 06:56:41;;;;;;;51.20;26.75;;;3.50;99.90;;;;;;5076613;28;20386;-55
2022/03/10 06:59:07;;;;;;;44.38;22.83;;;3.50;99.90;;;;;;5076968;28;20016;-56
2022/03/10 07:01:33;;;;;;;83.20;39.88;;;3.50;99.90;;;;;;5059226;28;20496;-59
2022/03/10 07:04:03;;;;;;;73.40;36.95;;;3.50;99.90;;;;;;5076417;28;20036;-57
2022/03/10 07:06:29;;;;;;;106.82;48.03;;;3.50;99.90;;;;;;5076169;28;20028;-60
2022/03/10 07:08:55;;;;;;;54.30;27.58;;;3.50;99.90;;;;;;5075973;28;20051;-59
2022/03/10 07:11:21;;;;;;;53.75;27.10;;;3.60;99.90;;;;;;5058996;28;20052;-60
2022/03/10 07:13:48;;;;;;;105.80;46.92;;;3.60;99.90;;;;;;5076185;28;20048;-58
2022/03/10 07:16:14;;;;;;;54.85;27.23;;;3.60;99.90;;;;;;5074050;28;20060;-62
2022/03/10 07:18:40;;;;;;;35.40;18.55;;;3.50;99.90;;;;;;5076019;28;20028;-58
2022/03/10 07:21:06;;;;;;;51.03;26.00;;;3.60;99.90;;;;;;5076300;28;20095;-58
2022/03/10 07:23:33;;;;;;;45.40;24.30;;;3.60;99.90;;;;;;5075947;28;20074;-61
2022/03/10 07:26:00;;;;;;;52.97;24.75;;;3.70;99.90;;;;;;5075456;28;20045;-59
2022/03/10 07:28:27;;;;;;;48.67;25.23;;;3.70;99.90;;;;;;5076599;28;20036;-59
2022/03/10 07:30:56;;;;;;;54.30;27.80;;;3.70;99.90;;;;;;5076781;28;20029;-59
2022/03/10 07:33:25;;;;;;;53.35;27.98;;;3.60;99.90;;;;;;5076766;28;20052;-58
2022/03/10 07:35:51;;;;;;;45.95;26.05;;;3.50;99.90;;;;;;5075957;28;20036;-58
2022/03/10 07:38:17;;;;;;;50.00;23.33;;;3.40;99.90;;;;;;5075895;28;20055;-58
2022/03/10 07:40:43;;;;;;;46.22;23.02;;;3.40;99.90;;;;;;5075647;28;20619;-58
2022/03/10 07:43:12;;;;;;;45.85;22.20;;;3.40;99.90;;;;;;5075930;28;20425;-61
2022/03/10 07:45:38;;;;;;;32.63;19.83;;;3.50;99.90;;;;;;5076028;28;20048;-59
2022/03/10 07:48:05;;;;;;;30.00;17.48;;;3.60;99.90;;;;;;5076006;28;20059;-59
2022/03/10 07:50:34;;;;;;;38.35;20.02;;;3.60;99.90;;;;;;5075328;28;20067;-59
2022/03/10 07:53:04;;;;;;;47.92;21.70;;;3.50;99.90;;;;;;5058497;28;20078;-59
2022/03/10 07:55:30;;;;;;;57.67;26.60;;;3.50;99.90;;;;;;5073353;28;20020;-59
2022/03/10 07:57:56;;;;;;;46.75;27.33;;;3.50;99.90;;;;;;5075550;28;20059;-60
2022/03/10 08:00:23;;;;;;;63.63;34.55;;;3.50;99.90;;;;;;5076408;28;20029;-59
2022/03/10 08:02:49;;;;;;;79.72;40.83;;;3.50;99.90;;;;;;5072960;28;20028;-60
2022/03/10 08:05:15;;;;;;;126.22;61.42;;;3.50;99.90;;;;;;5075415;28;20029;-58
2022/03/10 08:07:41;;;;;;;92.03;47.92;;;3.50;99.90;;;;;;5074094;28;20051;-59
2022/03/10 08:10:08;;;;;;;78.95;40.97;;;3.40;99.90;;;;;;5057985;28;20435;-60
2022/03/10 08:12:38;;;;;;;91.82;48.85;;;3.30;99.90;;;;;;5074300;28;20060;-59
2022/03/10 08:15:06;;;;;;;123.60;56.33;;;3.30;99.90;;;;;;5074276;28;20041;-61
2022/03/10 08:17:32;;;;;;;124.65;58.95;;;3.30;99.90;;;;;;5058179;28;20050;-58
2022/03/10 08:19:58;;;;;;;115.68;56.33;;;3.20;99.90;;;;;;5074635;28;20612;-61
2022/03/10 08:22:24;;;;;;;139.82;65.32;;;3.20;99.90;;;;;;5074741;28;20032;-58
2022/03/10 08:24:51;;;;;;;163.20;76.05;;;3.20;99.90;;;;;;5073891;28;20037;-60
2022/03/10 08:27:17;;;;;;;140.77;67.05;;;3.20;99.90;;;;;;5054558;28;20550;-58
2022/03/10 08:29:44;;;;;;;131.15;61.88;;;3.30;99.90;;;;;;5054730;28;20075;-58
2022/03/10 08:32:11;;;;;;;123.10;62.20;;;3.40;99.90;;;;;;5054800;28;20078;-58
2022/03/10 08:34:37;;;;;;;66.57;33.17;;;3.30;99.90;;;;;;5054625;28;20021;-58
2022/03/10 08:37:04;;;;;;;53.38;30.00;;;3.40;99.90;;;;;;5036716;28;20035;-58
2022/03/10 08:39:30;;;;;;;53.58;28.83;;;3.30;99.90;;;;;;5054373;28;20024;-58
2022/03/10 08:41:56;;;;;;;31.13;17.70;;;3.30;99.90;;;;;;5062895;28;20048;-58
2022/03/10 08:44:23;;;;;;;38.67;20.88;;;3.30;99.90;;;;;;5074381;28;20025;-58
2022/03/10 08:46:49;;;;;;;28.83;15.85;;;3.40;99.90;;;;;;5073782;28;20028;-58
2022/03/10 08:49:17;;;;;;;27.92;14.85;;;3.40;99.90;;;;;;5074253;28;20031;-58
2022/03/10 08:51:44;;;;;;;25.50;15.60;;;3.40;99.90;;;;;;5074956;28;20031;-59
2022/03/10 08:54:12;;;;;;;21.55;14.05;;;3.40;99.90;;;;;;5074310;28;20386;-57
2022/03/10 08:56:39;;;;;;;25.02;12.45;;;3.40;99.90;;;;;;5074337;28;20563;-58
2022/03/10 08:59:11;;;;;;;25.10;15.90;;;3.40;99.90;;;;;;5073701;28;20024;-58
2022/03/10 09:01:52;;;;;;;17.70;12.07;;;3.40;99.90;;;;;;5070517;28;20033;-58
2022/03/10 09:04:18;;;;;;;21.85;14.32;;;3.50;99.90;;;;;;5073619;28;20490;-59
2022/03/10 09:06:44;;;;;;;25.67;13.25;;;3.50;99.90;;;;;;5073728;28;20103;-59
2022/03/10 09:09:10;;;;;;;33.53;17.23;;;3.60;99.90;;;;;;5073136;28;20526;-59
2022/03/10 09:11:36;;;;;;;23.00;12.57;;;3.70;99.90;;;;;;5067086;28;20379;-59
2022/03/10 09:14:02;;;;;;;27.27;14.48;;;3.70;99.90;;;;;;5074172;28;20016;-59
2022/03/10 09:16:34;;;;;;;25.05;14.38;;;3.70;99.90;;;;;;5083251;28;20063;-59
2022/03/10 09:19:04;;;;;;;20.15;10.93;;;3.90;99.90;;;;;;5093252;28;20032;-59
2022/03/10 09:21:30;;;;;;;24.02;12.90;;;4.10;99.90;;;;;;5080039;28;20032;-59
2022/03/10 09:23:56;;;;;;;24.75;13.57;;;4.10;99.90;;;;;;5074184;28;20546;-59
2022/03/10 09:26:22;;;;;;;24.45;13.65;;;4.20;99.90;;;;;;5075351;28;20052;-59
2022/03/10 09:28:48;;;;;;;25.17;15.18;;;4.20;99.90;;;;;;5072104;28;20036;-59
2022/03/10 09:31:18;;;;;;;19.98;13.90;;;4.30;99.90;;;;;;5072620;28;20081;-59
2022/03/10 09:33:45;;;;;;;20.48;13.40;;;4.30;99.90;;;;;;5074629;28;20039;-59
2022/03/10 09:36:13;;;;;;;19.33;11.60;;;4.30;99.90;;;;;;5072579;28;20021;-57
2022/03/10 09:38:40;;;;;;;15.73;11.35;;;4.30;99.90;;;;;;5073241;28;20116;-57
2022/03/10 09:41:07;;;;;;;27.50;13.80;;;4.30;99.90;;;;;;5082585;28;20071;-59
2022/03/10 09:43:35;;;;;;;17.70;11.85;;;4.20;99.90;;;;;;5061903;28;20356;-59
2022/03/10 09:46:02;;;;;;;14.73;9.48;;;4.10;99.90;;;;;;5058486;28;20393;-59
2022/03/10 09:48:28;;;;;;;12.85;8.23;;;4.20;99.90;;;;;;5072276;28;20052;-59
2022/03/10 09:50:55;;;;;;;17.08;9.07;;;4.00;99.90;;;;;;5081772;28;20129;-59
2022/03/10 09:53:21;;;;;;;13.52;8.38;;;4.00;99.90;;;;;;5068693;28;20123;-60
2022/03/10 09:55:48;;;;;;;10.60;7.57;;;3.90;99.90;;;;;;5074767;28;20576;-58
2022/03/10 09:58:14;;;;;;;24.40;14.20;;;4.10;99.90;;;;;;5059688;28;20600;-60
2022/03/10 10:00:40;;;;;;;18.60;10.20;;;4.10;99.90;;;;;;5076553;28;20219;-59
2022/03/10 10:03:06;;;;;;;26.55;14.95;;;4.10;99.90;;;;;;5077438;28;20364;-59
2022/03/10 10:05:37;;;;;;;25.70;13.70;;;4.40;99.90;;;;;;5076936;28;20504;-58
2022/03/10 10:08:08;;;;;;;19.60;11.45;;;5.10;99.90;;;;;;5075811;28;20033;-59
2022/03/10 10:10:37;;;;;;;17.52;10.73;;;5.80;99.90;;;;;;5060988;28;20517;-61
2022/03/10 10:13:06;;;;;;;14.02;9.75;;;6.20;99.90;;;;;;5064727;28;20032;-59
2022/03/10 10:15:42;;;;;;;13.65;8.13;;;6.60;99.90;;;;;;5087325;28;20086;-59
2022/03/10 10:18:14;;;;;;;17.40;8.70;;;6.30;99.90;;;;;;5075095;28;20028;-59
2022/03/10 10:20:49;;;;;;;13.30;7.30;;;7.40;99.90;;;;;;5079369;28;20033;-59
2022/03/10 10:23:26;;;;;;;12.73;8.55;;;7.70;99.90;;;;;;5077891;28;20355;-59
2022/03/10 10:26:01;;;;;;;14.38;8.88;;;8.20;99.90;;;;;;5078778;28;20111;-59
2022/03/10 10:28:39;;;;;;;11.68;7.72;;;9.20;99.90;;;;;;5076689;28;20362;-60
2022/03/10 10:31:05;;;;;;;10.80;7.68;;;10.50;98.20;;;;;;5077630;28;20028;-61
2022/03/10 10:33:36;;;;;;;10.98;6.95;;;10.90;95.10;;;;;;5076654;28;20035;-60
2022/03/10 10:36:23;;;;;;;11.23;7.95;;;10.80;92.70;;;;;;5073231;28;20048;-59
2022/03/10 10:38:50;;;;;;;11.70;7.57;;;11.40;94.80;;;;;;5070965;28;20032;-57
2022/03/10 10:41:27;;;;;;;11.60;7.25;;;11.60;91.50;;;;;;5075177;28;20394;-58
2022/03/10 10:44:05;;;;;;;14.65;7.93;;;11.90;91.00;;;;;;5080378;28;20024;-58
2022/03/10 10:46:43;;;;;;;11.85;8.18;;;11.90;87.50;;;;;;5077981;28;20101;-58
2022/03/10 10:49:10;;;;;;;16.30;7.95;;;12.40;90.50;;;;;;5084050;28;20031;-58
2022/03/10 10:51:43;;;;;;;11.63;6.88;;;13.10;74.30;;;;;;5095324;28;20045;-58
2022/03/10 10:54:24;;;;;;;18.30;7.75;;;12.60;58.20;;;;;;5096782;28;20084;-59
2022/03/10 10:56:59;;;;;;;12.15;7.55;;;11.50;74.00;;;;;;5074610;28;20030;-58
2022/03/10 10:59:41;;;;;;;16.75;7.10;;;11.50;86.80;;;;;;5068609;28;20547;-59
2022/03/10 11:02:11;;;;;;;20.17;9.98;;;11.30;66.10;;;;;;5067222;28;20050;-58
2022/03/10 11:04:42;;;;;;;10.33;6.70;;;11.40;84.30;;;;;;5096697;28;20023;-58
2022/03/10 11:07:12;;;;;;;31.42;8.73;;;11.70;78.00;;;;;;5096768;28;20722;-58
2022/03/10 11:09:41;;;;;;;11.85;7.25;;;11.80;64.40;;;;;;5088701;28;20043;-58
2022/03/10 11:12:11;;;;;;;17.65;7.72;;;12.40;70.70;;;;;;5076729;28;20058;-59
2022/03/10 11:14:37;;;;;;;26.58;8.13;;;12.50;69.50;;;;;;5076088;28;20036;-59
2022/03/10 11:17:04;;;;;;;11.52;7.55;;;12.40;55.60;;;;;;5076137;28;20372;-59
2022/03/10 11:19:39;;;;;;;19.05;8.02;;;11.80;67.20;;;;;;5076693;28;20118;-59
2022/03/10 11:22:18;;;;;;;43.53;11.82;;;12.10;73.40;;;;;;5076061;28;20736;-59
2022/03/10 11:25:09;;;;;;;21.98;8.27;;;12.60;57.60;;;;;;5075738;28;20016;-59
2022/03/10 11:28:03;;;;;;;12.32;7.50;;;12.90;57.10;;;;;;5075861;28;20355;-59
2022/03/10 11:30:32;;;;;;;26.80;9.73;;;13.50;50.90;;;;;;5075894;28;20025;-59
2022/03/10 11:33:12;;;;;;;31.45;15.27;;;13.00;56.10;;;;;;5075484;28;20024;-59
2022/03/10 11:35:49;;;;;;;30.85;13.52;;;12.90;54.30;;;;;;5075850;28;20082;-59
2022/03/10 11:38:17;;;;;;;34.97;10.70;;;12.80;48.40;;;;;;5075690;28;20579;-59
2022/03/10 11:40:51;;;;;;;23.33;9.07;;;12.80;59.50;;;;;;5075897;28;20162;-59
2022/03/10 11:43:30;;;;;;;28.88;11.32;;;13.00;57.00;;;;;;5075282;28;20028;-61
2022/03/10 11:46:19;;;;;;;34.25;16.63;;;13.30;58.60;;;;;;5072681;28;20056;-60
2022/03/10 11:49:10;;;;;;;27.85;11.32;;;12.80;57.10;;;;;;5076045;28;20504;-56
2022/03/10 11:51:46;;;;;;;32.60;12.32;;;12.80;56.50;;;;;;5075199;28;20021;-54
2022/03/10 11:54:17;;;;;;;19.67;9.30;;;13.20;53.60;;;;;;5093540;28;20034;-54
2022/03/10 11:56:52;;;;;;;16.45;8.13;;;13.90;50.50;;;;;;5075482;28;20032;-54
2022/03/10 11:59:36;;;;;;;20.42;9.55;;;14.10;43.30;;;;;;5062697;28;20310;-54
2022/03/10 12:02:05;;;;;;;33.35;17.50;;;13.70;48.10;;;;;;5076839;28;20029;-56
2022/03/10 12:04:36;;;;;;;19.98;9.98;;;12.80;43.20;;;;;;5067676;28;20040;-55
2022/03/10 12:07:02;;;;;;;20.30;10.13;;;13.10;52.00;;;;;;5055028;28;20065;-55
2022/03/10 12:09:44;;;;;;;25.08;12.82;;;13.60;50.00;;;;;;5072827;28;20036;-55
2022/03/10 12:12:15;;;;;;;16.90;9.18;;;13.30;46.50;;;;;;5071620;28;20029;-55
2022/03/10 12:14:41;;;;;;;29.63;9.52;;;12.90;46.90;;;;;;5074091;28;20501;-55
2022/03/10 12:17:44;;;;;;;9.20;6.45;;;13.10;46.30;;;;;;5074945;28;20025;-55
2022/03/10 12:20:15;;;;;;;10.32;6.30;;;13.30;42.90;;;;;;5075327;28;20033;-55
2022/03/10 12:23:06;;;;;;;17.52;9.10;;;13.00;40.30;;;;;;5053493;28;20115;-55
2022/03/10 12:25:53;;;;;;;18.73;8.75;;;13.40;45.50;;;;;;5054987;28;20029;-55
2022/03/10 12:28:41;;;;;;;24.08;9.60;;;13.80;46.90;;;;;;5069237;28;20040;-55
2022/03/10 12:31:11;;;;;;;23.45;8.25;;;13.60;41.60;;;;;;5088533;28;20561;-55
2022/03/10 12:33:47;;;;;;;12.40;7.13;;;14.20;41.10;;;;;;5094126;28;20047;-55
2022/03/10 12:36:15;;;;;;;15.80;7.72;;;14.20;37.80;;;;;;5086275;28;20447;-55
2022/03/10 12:38:47;;;;;;;10.13;7.13;;;14.00;34.70;;;;;;5094290;28;20032;-55
2022/03/10 12:41:17;;;;;;;10.57;6.38;;;13.90;35.70;;;;;;5094716;28;20031;-55